Cole Camp, MO (65325)

3:03 AM CDT on August 31, 2015 (GMT -0500)
N Hughes Ave | | Change Station
CLOSE
Current Station
Personal Weather Station
Location: Stover, MO
Elevation: 1089 ft
Nearby Weather Stations

Elev 1089 ft 38.44 °N, 92.99 °W | Updated 11 minutes ago

Clear
Clear
71.1 °F
Feels Like 71.1 °F
N
0.0
Wind Variable Wind from ESE

Today
High -- | Low -- °F
--% Chance of Precip.
Yesterday
High -- | Low -- °F
Precip. -- in
6:41 AM 7:44 PM
Waning Gibbous, 96% visible
Pressure 29.98 in
Visibility 5.0 miles
Clouds Clear
Dew Point 69 °F
Humidity 94%
Rainfall 0.00 in
Snow Depth Not available.
UV 0 out of 12
Pollen 10.30 out of 12
Air Quality Not available.
Flu Activity Not available.
METAR KDMO 310653Z AUTO 15004KT 5SM BR CLR 22/21 A3000 RMK AO2 SLP150 T02220206
Pressure 29.98 in
Visibility 5.0 miles
Clouds Clear
Dew Point 69 °F
Humidity 94%
Rainfall 0.00 in
Snow Depth Not available.
UV 0 out of 12
Pollen 10.30 out of 12
Air Quality Not available.
Flu Activity Not available.
METAR KDMO 310653Z AUTO 15004KT 5SM BR CLR 22/21 A3000 RMK AO2 SLP150 T02220206

10-Day Weather Forecast

×

Almanac

Astronomy

Aug. 31, 2015 Rise Set
Actual Time
Civil Twilight
Nautical Twilight
Astronomical Twilight
Moon
Length of Visible Light
Length of Day
Tomorrow will be .
, % of the Moon is Illuminated

Today's Extremes

State Highs State Lows

Community

WunderPhotos

Upload Photos

1,851,220 photos uploaded!

WunderBlogs® & News

Nearby

Air Quality

  Air Quality AQ Index Pollutant
Not available.

Snow Depth

Station Depth Elevation

Earthquake Activity

City Distance Mag. Time & Date
Minimum magnitude displayed is 2.5.

Coastal Water Temperatures

Place Temperature

Stations

Nearby Weather Stations

Station Location Temp. Windchill Dew Point Humidity Wind Precip. Elev Updated Type